Avoca, Minnesota
Current Conditions -  °F | °C
As of 8:34 AM on Saturday 25 Oct 2014 (Local Time) from KDVP Reporting Station
Clear Clear  
Wind Chill:   Ceiling: Unl
Heat Index:   Visibility: 10mi
Dew Point:   Wind: 7mph
Humidity: 66%   Direction: 300°WNW
Pressure: 30.11"   Gusts: NA
Location:  43.95°N, 95.65°W
Report Text: KDVP 251334Z AUTO 30006KT 10SM CLR 08/02 A3011 RMK AO2 T00770017
Loading
Personal Weather Stations






























Interactive Weather Map
Tropical Storm Tracking
New forecast layout! Learn more

10-Day Weather Forecast

Advertisements
Track Severe Weather on mobile